sensor_id;sensor_type;location;lat;lon;timestamp;temperature;humidity
66928;DHT22;59882;45.624;11.698;2023-07-29T00:01:34;24.60;68.60
66928;DHT22;59882;45.624;11.698;2023-07-29T00:03:59;24.50;68.80
66928;DHT22;59882;45.624;11.698;2023-07-29T00:06:26;24.40;68.30
66928;DHT22;59882;45.624;11.698;2023-07-29T00:08:52;24.40;69.10
66928;DHT22;59882;45.624;11.698;2023-07-29T00:11:17;24.40;69.10
66928;DHT22;59882;45.624;11.698;2023-07-29T00:13:43;24.30;69.30
66928;DHT22;59882;45.624;11.698;2023-07-29T00:16:09;24.20;69.20
66928;DHT22;59882;45.624;11.698;2023-07-29T00:18:35;24.20;69.20
66928;DHT22;59882;45.624;11.698;2023-07-29T00:21:01;24.20;69.40
66928;DHT22;59882;45.624;11.698;2023-07-29T00:23:27;24.10;69.70
66928;DHT22;59882;45.624;11.698;2023-07-29T00:25:53;24.10;69.70
66928;DHT22;59882;45.624;11.698;2023-07-29T00:28:18;24.00;70.10
66928;DHT22;59882;45.624;11.698;2023-07-29T00:30:44;24.00;69.50
66928;DHT22;59882;45.624;11.698;2023-07-29T00:33:10;24.00;69.90
66928;DHT22;59882;45.624;11.698;2023-07-29T00:35:35;24.00;69.90
66928;DHT22;59882;45.624;11.698;2023-07-29T00:38:01;24.00;69.70
66928;DHT22;59882;45.624;11.698;2023-07-29T00:40:28;24.00;69.80
66928;DHT22;59882;45.624;11.698;2023-07-29T00:42:54;24.00;69.80
66928;DHT22;59882;45.624;11.698;2023-07-29T00:45:20;24.00;69.80
66928;DHT22;59882;45.624;11.698;2023-07-29T00:47:46;24.00;69.80
66928;DHT22;59882;45.624;11.698;2023-07-29T00:50:13;24.00;69.80
66928;DHT22;59882;45.624;11.698;2023-07-29T00:52:39;24.00;69.80
66928;DHT22;59882;45.624;11.698;2023-07-29T00:55:05;23.90;70.10
66928;DHT22;59882;45.624;11.698;2023-07-29T00:57:32;23.90;70.20
66928;DHT22;59882;45.624;11.698;2023-07-29T00:59:59;23.80;70.40
66928;DHT22;59882;45.624;11.698;2023-07-29T01:02:26;23.80;70.20
66928;DHT22;59882;45.624;11.698;2023-07-29T01:04:57;23.70;70.20
66928;DHT22;59882;45.624;11.698;2023-07-29T01:07:36;23.70;70.30
66928;DHT22;59882;45.624;11.698;2023-07-29T01:13:14;23.60;70.50
66928;DHT22;59882;45.624;11.698;2023-07-29T01:18:25;23.50;70.20
66928;DHT22;59882;45.624;11.698;2023-07-29T01:20:59;23.40;70.50
66928;DHT22;59882;45.624;11.698;2023-07-29T01:23:26;23.40;70.40
66928;DHT22;59882;45.624;11.698;2023-07-29T01:25:54;23.40;70.40
66928;DHT22;59882;45.624;11.698;2023-07-29T01:28:20;23.30;70.30
66928;DHT22;59882;45.624;11.698;2023-07-29T01:30:49;23.20;70.00
66928;DHT22;59882;45.624;11.698;2023-07-29T01:33:24;23.30;70.00
66928;DHT22;59882;45.624;11.698;2023-07-29T01:36:08;23.30;69.80
66928;DHT22;59882;45.624;11.698;2023-07-29T01:38:38;23.20;69.90
66928;DHT22;59882;45.624;11.698;2023-07-29T01:41:07;23.20;70.00
66928;DHT22;59882;45.624;11.698;2023-07-29T01:43:33;23.20;69.80
66928;DHT22;59882;45.624;11.698;2023-07-29T01:46:03;23.10;69.70
66928;DHT22;59882;45.624;11.698;2023-07-29T01:48:28;23.20;69.70
66928;DHT22;59882;45.624;11.698;2023-07-29T01:50:55;23.20;69.90
66928;DHT22;59882;45.624;11.698;2023-07-29T01:53:21;23.20;69.80
66928;DHT22;59882;45.624;11.698;2023-07-29T01:55:47;23.10;69.90
66928;DHT22;59882;45.624;11.698;2023-07-29T01:58:12;23.10;69.70
66928;DHT22;59882;45.624;11.698;2023-07-29T02:00:39;23.10;69.70
66928;DHT22;59882;45.624;11.698;2023-07-29T02:03:05;23.10;69.70
66928;DHT22;59882;45.624;11.698;2023-07-29T02:05:31;23.20;69.60
66928;DHT22;59882;45.624;11.698;2023-07-29T02:07:56;23.20;69.50
66928;DHT22;59882;45.624;11.698;2023-07-29T02:10:22;23.10;69.90
66928;DHT22;59882;45.624;11.698;2023-07-29T02:12:48;23.00;70.40
66928;DHT22;59882;45.624;11.698;2023-07-29T02:15:13;22.90;70.30
66928;DHT22;59882;45.624;11.698;2023-07-29T02:17:41;22.80;70.70
66928;DHT22;59882;45.624;11.698;2023-07-29T02:20:07;22.80;71.00
66928;DHT22;59882;45.624;11.698;2023-07-29T02:22:33;22.70;70.90
66928;DHT22;59882;45.624;11.698;2023-07-29T02:24:59;22.70;70.60
66928;DHT22;59882;45.624;11.698;2023-07-29T02:27:26;22.70;70.80
66928;DHT22;59882;45.624;11.698;2023-07-29T02:29:53;22.70;70.90
66928;DHT22;59882;45.624;11.698;2023-07-29T02:32:19;22.70;71.30
66928;DHT22;59882;45.624;11.698;2023-07-29T02:34:45;22.70;70.90
66928;DHT22;59882;45.624;11.698;2023-07-29T02:37:10;22.70;71.30
66928;DHT22;59882;45.624;11.698;2023-07-29T02:39:36;22.70;71.10
66928;DHT22;59882;45.624;11.698;2023-07-29T02:42:02;22.70;71.20
66928;DHT22;59882;45.624;11.698;2023-07-29T02:44:28;22.60;70.90
66928;DHT22;59882;45.624;11.698;2023-07-29T02:46:54;22.60;70.60
66928;DHT22;59882;45.624;11.698;2023-07-29T02:49:21;22.60;70.70
66928;DHT22;59882;45.624;11.698;2023-07-29T02:51:47;22.60;71.00
66928;DHT22;59882;45.624;11.698;2023-07-29T02:54:13;22.60;70.60
66928;DHT22;59882;45.624;11.698;2023-07-29T02:56:39;22.60;70.40
66928;DHT22;59882;45.624;11.698;2023-07-29T02:59:04;22.60;70.30
66928;DHT22;59882;45.624;11.698;2023-07-29T03:01:30;22.60;70.10
66928;DHT22;59882;45.624;11.698;2023-07-29T03:03:56;22.60;70.20
66928;DHT22;59882;45.624;11.698;2023-07-29T03:06:22;22.60;70.10
66928;DHT22;59882;45.624;11.698;2023-07-29T03:08:48;22.60;70.10
66928;DHT22;59882;45.624;11.698;2023-07-29T03:11:14;22.60;70.00
66928;DHT22;59882;45.624;11.698;2023-07-29T03:13:41;22.60;70.20
66928;DHT22;59882;45.624;11.698;2023-07-29T03:16:10;22.60;70.30
66928;DHT22;59882;45.624;11.698;2023-07-29T03:18:36;22.60;70.30
66928;DHT22;59882;45.624;11.698;2023-07-29T03:21:03;22.60;70.70
66928;DHT22;59882;45.624;11.698;2023-07-29T03:23:32;22.70;70.50
66928;DHT22;59882;45.624;11.698;2023-07-29T03:25:58;22.70;70.60
66928;DHT22;59882;45.624;11.698;2023-07-29T03:28:29;22.60;70.40
66928;DHT22;59882;45.624;11.698;2023-07-29T03:30:57;22.70;70.50
66928;DHT22;59882;45.624;11.698;2023-07-29T03:33:25;22.70;70.30
66928;DHT22;59882;45.624;11.698;2023-07-29T03:35:50;22.80;70.50
66928;DHT22;59882;45.624;11.698;2023-07-29T03:38:16;22.80;70.80
66928;DHT22;59882;45.624;11.698;2023-07-29T03:40:42;22.70;70.80
66928;DHT22;59882;45.624;11.698;2023-07-29T03:43:08;22.70;70.90
66928;DHT22;59882;45.624;11.698;2023-07-29T03:45:34;22.70;70.70
66928;DHT22;59882;45.624;11.698;2023-07-29T03:48:00;22.70;70.50
66928;DHT22;59882;45.624;11.698;2023-07-29T03:50:26;22.60;70.60
66928;DHT22;59882;45.624;11.698;2023-07-29T03:52:52;22.50;70.60
66928;DHT22;59882;45.624;11.698;2023-07-29T03:55:18;22.40;70.60
66928;DHT22;59882;45.624;11.698;2023-07-29T03:57:44;22.40;70.80
66928;DHT22;59882;45.624;11.698;2023-07-29T04:00:10;22.40;71.20
66928;DHT22;59882;45.624;11.698;2023-07-29T04:02:36;22.30;70.90
66928;DHT22;59882;45.624;11.698;2023-07-29T04:05:05;22.30;71.20
66928;DHT22;59882;45.624;11.698;2023-07-29T04:07:34;22.20;71.90
66928;DHT22;59882;45.624;11.698;2023-07-29T04:09:59;22.10;72.00
66928;DHT22;59882;45.624;11.698;2023-07-29T04:12:26;22.00;71.90
66928;DHT22;59882;45.624;11.698;2023-07-29T04:14:52;22.00;72.30
66928;DHT22;59882;45.624;11.698;2023-07-29T04:17:17;22.00;71.90
66928;DHT22;59882;45.624;11.698;2023-07-29T04:19:43;22.10;72.40
66928;DHT22;59882;45.624;11.698;2023-07-29T04:22:09;22.10;72.50
66928;DHT22;59882;45.624;11.698;2023-07-29T04:24:35;22.10;72.10
66928;DHT22;59882;45.624;11.698;2023-07-29T04:27:00;22.20;72.10
66928;DHT22;59882;45.624;11.698;2023-07-29T04:29:26;22.20;72.30
66928;DHT22;59882;45.624;11.698;2023-07-29T04:31:52;22.20;71.90
66928;DHT22;59882;45.624;11.698;2023-07-29T04:34:18;22.30;71.80
66928;DHT22;59882;45.624;11.698;2023-07-29T04:36:44;22.40;71.90
66928;DHT22;59882;45.624;11.698;2023-07-29T04:39:10;22.40;71.90
66928;DHT22;59882;45.624;11.698;2023-07-29T04:41:36;22.40;72.10
66928;DHT22;59882;45.624;11.698;2023-07-29T04:44:01;22.40;72.00
66928;DHT22;59882;45.624;11.698;2023-07-29T04:46:27;22.40;71.60
66928;DHT22;59882;45.624;11.698;2023-07-29T04:48:53;22.40;72.20
66928;DHT22;59882;45.624;11.698;2023-07-29T04:51:18;22.40;72.30
66928;DHT22;59882;45.624;11.698;2023-07-29T04:53:44;22.50;72.00
66928;DHT22;59882;45.624;11.698;2023-07-29T04:56:09;22.50;71.90
66928;DHT22;59882;45.624;11.698;2023-07-29T04:58:35;22.50;71.90
66928;DHT22;59882;45.624;11.698;2023-07-29T05:01:04;22.60;71.50
66928;DHT22;59882;45.624;11.698;2023-07-29T05:03:30;22.60;71.40
66928;DHT22;59882;45.624;11.698;2023-07-29T05:05:56;22.60;71.40
66928;DHT22;59882;45.624;11.698;2023-07-29T05:08:22;22.70;71.20
66928;DHT22;59882;45.624;11.698;2023-07-29T05:10:52;22.80;71.00
66928;DHT22;59882;45.624;11.698;2023-07-29T05:13:18;22.80;70.90
66928;DHT22;59882;45.624;11.698;2023-07-29T05:15:44;22.90;71.20
66928;DHT22;59882;45.624;11.698;2023-07-29T05:18:10;22.90;71.20
66928;DHT22;59882;45.624;11.698;2023-07-29T05:20:36;22.90;70.90
66928;DHT22;59882;45.624;11.698;2023-07-29T05:23:01;22.90;70.80
66928;DHT22;59882;45.624;11.698;2023-07-29T05:25:27;22.90;70.90
66928;DHT22;59882;45.624;11.698;2023-07-29T05:27:53;22.90;71.20
66928;DHT22;59882;45.624;11.698;2023-07-29T05:30:19;22.90;71.40
66928;DHT22;59882;45.624;11.698;2023-07-29T05:32:44;23.00;71.30
66928;DHT22;59882;45.624;11.698;2023-07-29T05:35:10;23.00;71.20
66928;DHT22;59882;45.624;11.698;2023-07-29T05:37:39;23.10;71.20
66928;DHT22;59882;45.624;11.698;2023-07-29T05:40:08;23.20;70.90
66928;DHT22;59882;45.624;11.698;2023-07-29T05:42:34;23.20;70.60
66928;DHT22;59882;45.624;11.698;2023-07-29T05:45:00;23.30;70.50
66928;DHT22;59882;45.624;11.698;2023-07-29T05:47:26;23.30;70.40
66928;DHT22;59882;45.624;11.698;2023-07-29T05:49:52;23.40;70.30
66928;DHT22;59882;45.624;11.698;2023-07-29T05:52:18;23.40;70.20
66928;DHT22;59882;45.624;11.698;2023-07-29T05:54:44;23.40;70.10
66928;DHT22;59882;45.624;11.698;2023-07-29T05:57:11;23.50;70.20
66928;DHT22;59882;45.624;11.698;2023-07-29T05:59:37;23.60;70.30
66928;DHT22;59882;45.624;11.698;2023-07-29T06:02:05;23.70;70.30
66928;DHT22;59882;45.624;11.698;2023-07-29T06:04:31;23.70;70.20
66928;DHT22;59882;45.624;11.698;2023-07-29T06:06:57;23.80;70.50
66928;DHT22;59882;45.624;11.698;2023-07-29T06:09:23;23.80;70.30
66928;DHT22;59882;45.624;11.698;2023-07-29T06:11:50;23.90;70.40
66928;DHT22;59882;45.624;11.698;2023-07-29T06:14:16;23.90;70.40
66928;DHT22;59882;45.624;11.698;2023-07-29T06:16:42;24.00;70.50
66928;DHT22;59882;45.624;11.698;2023-07-29T06:19:07;24.00;70.50
66928;DHT22;59882;45.624;11.698;2023-07-29T06:21:34;24.10;70.60
66928;DHT22;59882;45.624;11.698;2023-07-29T06:24:00;24.10;70.90
66928;DHT22;59882;45.624;11.698;2023-07-29T06:26:26;24.20;70.80
66928;DHT22;59882;45.624;11.698;2023-07-29T06:28:52;24.20;71.10
66928;DHT22;59882;45.624;11.698;2023-07-29T06:31:17;24.20;70.90
66928;DHT22;59882;45.624;11.698;2023-07-29T06:33:43;24.30;71.00
66928;DHT22;59882;45.624;11.698;2023-07-29T06:36:08;24.40;71.00
66928;DHT22;59882;45.624;11.698;2023-07-29T06:38:34;24.40;70.90
66928;DHT22;59882;45.624;11.698;2023-07-29T06:41:00;24.40;70.90
66928;DHT22;59882;45.624;11.698;2023-07-29T06:43:25;24.40;70.90
66928;DHT22;59882;45.624;11.698;2023-07-29T06:45:51;24.50;70.90
66928;DHT22;59882;45.624;11.698;2023-07-29T06:48:17;24.50;70.80
66928;DHT22;59882;45.624;11.698;2023-07-29T06:50:44;24.50;70.70
66928;DHT22;59882;45.624;11.698;2023-07-29T06:53:10;24.60;70.80
66928;DHT22;59882;45.624;11.698;2023-07-29T06:55:35;24.50;70.70
66928;DHT22;59882;45.624;11.698;2023-07-29T06:58:04;24.60;71.20
66928;DHT22;59882;45.624;11.698;2023-07-29T07:00:30;24.70;70.70
66928;DHT22;59882;45.624;11.698;2023-07-29T07:02:55;24.60;70.60
66928;DHT22;59882;45.624;11.698;2023-07-29T07:05:21;24.70;70.60
66928;DHT22;59882;45.624;11.698;2023-07-29T07:07:47;24.70;70.70
66928;DHT22;59882;45.624;11.698;2023-07-29T07:10:13;24.70;70.80
66928;DHT22;59882;45.624;11.698;2023-07-29T07:12:39;24.80;70.80
66928;DHT22;59882;45.624;11.698;2023-07-29T07:15:05;24.80;70.70
66928;DHT22;59882;45.624;11.698;2023-07-29T07:17:31;24.90;70.60
66928;DHT22;59882;45.624;11.698;2023-07-29T07:19:57;24.90;70.80
66928;DHT22;59882;45.624;11.698;2023-07-29T07:22:22;24.90;70.70
66928;DHT22;59882;45.624;11.698;2023-07-29T07:24:49;24.90;70.70
66928;DHT22;59882;45.624;11.698;2023-07-29T07:27:14;25.00;70.60
66928;DHT22;59882;45.624;11.698;2023-07-29T07:29:40;25.00;70.70
66928;DHT22;59882;45.624;11.698;2023-07-29T07:32:06;25.00;70.80
66928;DHT22;59882;45.624;11.698;2023-07-29T07:34:31;25.10;70.60
66928;DHT22;59882;45.624;11.698;2023-07-29T07:36:58;25.10;70.60
66928;DHT22;59882;45.624;11.698;2023-07-29T07:39:24;25.10;70.20
66928;DHT22;59882;45.624;11.698;2023-07-29T07:41:50;25.10;70.20
66928;DHT22;59882;45.624;11.698;2023-07-29T07:44:15;25.20;70.10
66928;DHT22;59882;45.624;11.698;2023-07-29T07:46:43;25.30;70.10
66928;DHT22;59882;45.624;11.698;2023-07-29T07:49:09;25.30;70.10
66928;DHT22;59882;45.624;11.698;2023-07-29T07:51:34;25.40;70.00
66928;DHT22;59882;45.624;11.698;2023-07-29T07:54:00;25.40;69.80
66928;DHT22;59882;45.624;11.698;2023-07-29T07:56:26;25.40;69.80
66928;DHT22;59882;45.624;11.698;2023-07-29T07:58:51;25.40;69.60
66928;DHT22;59882;45.624;11.698;2023-07-29T08:01:17;25.40;69.30
66928;DHT22;59882;45.624;11.698;2023-07-29T08:03:42;25.50;69.90
66928;DHT22;59882;45.624;11.698;2023-07-29T08:06:08;25.50;69.60
66928;DHT22;59882;45.624;11.698;2023-07-29T08:08:34;25.50;69.60
66928;DHT22;59882;45.624;11.698;2023-07-29T08:10:59;25.50;69.60
66928;DHT22;59882;45.624;11.698;2023-07-29T08:13:25;25.60;70.00
66928;DHT22;59882;45.624;11.698;2023-07-29T08:15:52;25.70;69.70
66928;DHT22;59882;45.624;11.698;2023-07-29T08:18:18;25.70;69.50
66928;DHT22;59882;45.624;11.698;2023-07-29T08:21:10;25.80;69.20
66928;DHT22;59882;45.624;11.698;2023-07-29T08:23:36;25.90;69.20
66928;DHT22;59882;45.624;11.698;2023-07-29T08:26:04;25.90;68.90
66928;DHT22;59882;45.624;11.698;2023-07-29T08:28:35;25.90;68.90
66928;DHT22;59882;45.624;11.698;2023-07-29T08:31:01;26.00;69.00
66928;DHT22;59882;45.624;11.698;2023-07-29T08:33:28;26.00;68.70
66928;DHT22;59882;45.624;11.698;2023-07-29T08:35:53;26.10;68.60
66928;DHT22;59882;45.624;11.698;2023-07-29T08:38:20;26.20;68.40
66928;DHT22;59882;45.624;11.698;2023-07-29T08:46:26;26.30;68.20
66928;DHT22;59882;45.624;11.698;2023-07-29T08:48:52;26.40;67.60
66928;DHT22;59882;45.624;11.698;2023-07-29T08:51:18;26.50;67.20
66928;DHT22;59882;45.624;11.698;2023-07-29T08:53:45;26.60;66.80
66928;DHT22;59882;45.624;11.698;2023-07-29T08:56:12;26.70;66.20
66928;DHT22;59882;45.624;11.698;2023-07-29T08:58:37;26.70;66.00
66928;DHT22;59882;45.624;11.698;2023-07-29T09:01:05;26.80;65.60
66928;DHT22;59882;45.624;11.698;2023-07-29T09:03:31;26.70;65.60
66928;DHT22;59882;45.624;11.698;2023-07-29T09:05:58;26.70;65.10
66928;DHT22;59882;45.624;11.698;2023-07-29T09:08:26;26.50;64.80
66928;DHT22;59882;45.624;11.698;2023-07-29T09:10:53;26.50;65.00
66928;DHT22;59882;45.624;11.698;2023-07-29T09:13:20;26.40;65.40
66928;DHT22;59882;45.624;11.698;2023-07-29T09:15:45;26.40;66.10
66928;DHT22;59882;45.624;11.698;2023-07-29T09:18:14;26.40;66.50
66928;DHT22;59882;45.624;11.698;2023-07-29T09:20:41;26.50;66.30
66928;DHT22;59882;45.624;11.698;2023-07-29T09:23:09;26.70;67.30
66928;DHT22;59882;45.624;11.698;2023-07-29T09:25:38;26.80;67.00
66928;DHT22;59882;45.624;11.698;2023-07-29T09:28:09;26.90;66.90
66928;DHT22;59882;45.624;11.698;2023-07-29T09:30:37;27.00;66.20
66928;DHT22;59882;45.624;11.698;2023-07-29T09:33:02;27.20;65.70
66928;DHT22;59882;45.624;11.698;2023-07-29T09:35:30;27.20;64.80
66928;DHT22;59882;45.624;11.698;2023-07-29T09:37:57;27.40;63.10
66928;DHT22;59882;45.624;11.698;2023-07-29T09:40:23;27.40;62.90
66928;DHT22;59882;45.624;11.698;2023-07-29T09:42:53;27.50;62.00
66928;DHT22;59882;45.624;11.698;2023-07-29T09:45:26;27.40;62.60
66928;DHT22;59882;45.624;11.698;2023-07-29T09:47:53;27.50;63.20
66928;DHT22;59882;45.624;11.698;2023-07-29T09:50:23;27.50;63.60
66928;DHT22;59882;45.624;11.698;2023-07-29T09:52:50;27.60;64.00
66928;DHT22;59882;45.624;11.698;2023-07-29T09:55:21;27.60;63.40
66928;DHT22;59882;45.624;11.698;2023-07-29T09:57:47;27.70;63.10
66928;DHT22;59882;45.624;11.698;2023-07-29T10:00:13;27.70;62.70
66928;DHT22;59882;45.624;11.698;2023-07-29T10:02:43;27.80;63.30
66928;DHT22;59882;45.624;11.698;2023-07-29T10:05:09;27.90;62.80
66928;DHT22;59882;45.624;11.698;2023-07-29T10:07:37;27.90;61.50
66928;DHT22;59882;45.624;11.698;2023-07-29T10:10:07;27.80;59.50
66928;DHT22;59882;45.624;11.698;2023-07-29T10:12:34;27.80;60.60
66928;DHT22;59882;45.624;11.698;2023-07-29T10:15:02;27.70;61.00
66928;DHT22;59882;45.624;11.698;2023-07-29T10:17:30;27.70;61.40
66928;DHT22;59882;45.624;11.698;2023-07-29T10:19:56;27.80;61.70
66928;DHT22;59882;45.624;11.698;2023-07-29T10:22:28;27.90;62.10
66928;DHT22;59882;45.624;11.698;2023-07-29T10:25:03;27.90;61.70
66928;DHT22;59882;45.624;11.698;2023-07-29T10:27:31;28.00;61.40
66928;DHT22;59882;45.624;11.698;2023-07-29T10:29:59;28.00;61.20
66928;DHT22;59882;45.624;11.698;2023-07-29T10:32:25;28.20;61.90
66928;DHT22;59882;45.624;11.698;2023-07-29T10:34:54;28.30;61.00
66928;DHT22;59882;45.624;11.698;2023-07-29T10:37:20;28.40;60.40
66928;DHT22;59882;45.624;11.698;2023-07-29T10:39:54;28.40;60.80
66928;DHT22;59882;45.624;11.698;2023-07-29T10:42:20;28.50;60.20
66928;DHT22;59882;45.624;11.698;2023-07-29T10:44:46;28.60;59.80
66928;DHT22;59882;45.624;11.698;2023-07-29T10:47:24;28.60;59.30
66928;DHT22;59882;45.624;11.698;2023-07-29T10:49:52;28.60;59.60
66928;DHT22;59882;45.624;11.698;2023-07-29T10:52:40;28.70;58.90
66928;DHT22;59882;45.624;11.698;2023-07-29T10:58:15;28.70;58.20
66928;DHT22;59882;45.624;11.698;2023-07-29T11:00:44;28.70;58.10
66928;DHT22;59882;45.624;11.698;2023-07-29T11:03:12;28.70;57.20
66928;DHT22;59882;45.624;11.698;2023-07-29T11:05:49;28.70;58.80
66928;DHT22;59882;45.624;11.698;2023-07-29T11:08:19;28.80;56.90
66928;DHT22;59882;45.624;11.698;2023-07-29T11:11:07;28.80;55.60
66928;DHT22;59882;45.624;11.698;2023-07-29T11:13:35;28.70;56.80
66928;DHT22;59882;45.624;11.698;2023-07-29T11:16:02;28.70;56.60
66928;DHT22;59882;45.624;11.698;2023-07-29T11:18:34;28.70;56.90
66928;DHT22;59882;45.624;11.698;2023-07-29T11:21:02;28.70;57.10
66928;DHT22;59882;45.624;11.698;2023-07-29T11:23:30;28.80;56.30
66928;DHT22;59882;45.624;11.698;2023-07-29T11:25:57;28.80;57.30
66928;DHT22;59882;45.624;11.698;2023-07-29T11:28:24;28.90;56.10
66928;DHT22;59882;45.624;11.698;2023-07-29T11:30:50;28.90;56.20
66928;DHT22;59882;45.624;11.698;2023-07-29T11:33:24;29.00;56.00
66928;DHT22;59882;45.624;11.698;2023-07-29T11:35:51;29.00;56.40
66928;DHT22;59882;45.624;11.698;2023-07-29T11:38:19;29.20;57.20
66928;DHT22;59882;45.624;11.698;2023-07-29T11:41:05;29.30;56.30
66928;DHT22;59882;45.624;11.698;2023-07-29T11:43:35;29.40;55.60
66928;DHT22;59882;45.624;11.698;2023-07-29T11:46:01;29.50;54.40
66928;DHT22;59882;45.624;11.698;2023-07-29T11:48:36;29.50;54.50
66928;DHT22;59882;45.624;11.698;2023-07-29T11:51:02;29.70;54.30
66928;DHT22;59882;45.624;11.698;2023-07-29T11:53:29;29.80;54.10
66928;DHT22;59882;45.624;11.698;2023-07-29T11:55:56;29.90;52.30
66928;DHT22;59882;45.624;11.698;2023-07-29T11:58:21;29.90;52.90
66928;DHT22;59882;45.624;11.698;2023-07-29T12:00:48;30.00;53.20
66928;DHT22;59882;45.624;11.698;2023-07-29T12:03:14;30.00;53.90
66928;DHT22;59882;45.624;11.698;2023-07-29T12:05:41;30.20;54.30
66928;DHT22;59882;45.624;11.698;2023-07-29T12:08:08;30.30;53.50
66928;DHT22;59882;45.624;11.698;2023-07-29T12:10:34;30.30;53.50
66928;DHT22;59882;45.624;11.698;2023-07-29T12:13:02;30.40;53.10
66928;DHT22;59882;45.624;11.698;2023-07-29T12:15:29;30.50;53.00
66928;DHT22;59882;45.624;11.698;2023-07-29T12:17:56;30.60;52.90
66928;DHT22;59882;45.624;11.698;2023-07-29T12:20:22;30.70;52.90
66928;DHT22;59882;45.624;11.698;2023-07-29T12:22:56;30.90;52.70
66928;DHT22;59882;45.624;11.698;2023-07-29T12:25:22;31.00;50.80
66928;DHT22;59882;45.624;11.698;2023-07-29T12:27:48;31.10;50.70
66928;DHT22;59882;45.624;11.698;2023-07-29T12:30:14;31.20;51.20
66928;DHT22;59882;45.624;11.698;2023-07-29T12:32:46;31.30;50.60
66928;DHT22;59882;45.624;11.698;2023-07-29T12:35:13;31.50;50.50
66928;DHT22;59882;45.624;11.698;2023-07-29T12:37:38;31.60;49.90
66928;DHT22;59882;45.624;11.698;2023-07-29T12:40:08;31.70;49.10
66928;DHT22;59882;45.624;11.698;2023-07-29T12:42:34;31.80;51.00
66928;DHT22;59882;45.624;11.698;2023-07-29T12:45:00;32.00;50.30
66928;DHT22;59882;45.624;11.698;2023-07-29T12:47:25;32.10;49.90
66928;DHT22;59882;45.624;11.698;2023-07-29T12:49:51;32.30;49.10
66928;DHT22;59882;45.624;11.698;2023-07-29T12:52:16;32.50;49.60
66928;DHT22;59882;45.624;11.698;2023-07-29T12:54:42;32.70;46.90
66928;DHT22;59882;45.624;11.698;2023-07-29T12:57:09;32.90;44.90
66928;DHT22;59882;45.624;11.698;2023-07-29T12:59:35;33.90;44.80
66928;DHT22;59882;45.624;11.698;2023-07-29T13:02:00;35.80;42.70
66928;DHT22;59882;45.624;11.698;2023-07-29T13:04:26;37.80;40.60
66928;DHT22;59882;45.624;11.698;2023-07-29T13:06:51;39.40;36.50
66928;DHT22;59882;45.624;11.698;2023-07-29T13:09:17;40.80;34.10
66928;DHT22;59882;45.624;11.698;2023-07-29T13:11:43;42.10;31.70
66928;DHT22;59882;45.624;11.698;2023-07-29T13:14:08;43.50;30.20
66928;DHT22;59882;45.624;11.698;2023-07-29T13:16:34;44.20;29.20
66928;DHT22;59882;45.624;11.698;2023-07-29T13:19:00;45.00;28.80
66928;DHT22;59882;45.624;11.698;2023-07-29T13:21:25;45.80;27.80
66928;DHT22;59882;45.624;11.698;2023-07-29T13:23:51;46.50;27.60
66928;DHT22;59882;45.624;11.698;2023-07-29T13:26:17;47.00;27.40
66928;DHT22;59882;45.624;11.698;2023-07-29T13:28:43;47.50;26.00
66928;DHT22;59882;45.624;11.698;2023-07-29T13:31:08;48.00;25.10
66928;DHT22;59882;45.624;11.698;2023-07-29T13:33:34;48.30;25.20
66928;DHT22;59882;45.624;11.698;2023-07-29T13:36:00;48.60;25.10
66928;DHT22;59882;45.624;11.698;2023-07-29T13:38:28;49.10;24.80
66928;DHT22;59882;45.624;11.698;2023-07-29T13:40:54;49.50;24.50
66928;DHT22;59882;45.624;11.698;2023-07-29T13:43:20;49.50;24.10
66928;DHT22;59882;45.624;11.698;2023-07-29T13:45:45;49.50;23.60
66928;DHT22;59882;45.624;11.698;2023-07-29T13:48:14;49.50;23.60
66928;DHT22;59882;45.624;11.698;2023-07-29T13:50:39;49.40;23.40
66928;DHT22;59882;45.624;11.698;2023-07-29T13:53:06;49.40;23.80
66928;DHT22;59882;45.624;11.698;2023-07-29T13:55:32;49.30;23.50
66928;DHT22;59882;45.624;11.698;2023-07-29T13:57:58;49.40;24.00
66928;DHT22;59882;45.624;11.698;2023-07-29T14:00:23;49.70;23.40
66928;DHT22;59882;45.624;11.698;2023-07-29T14:02:49;49.40;22.80
66928;DHT22;59882;45.624;11.698;2023-07-29T14:05:14;49.40;23.60
66928;DHT22;59882;45.624;11.698;2023-07-29T14:07:40;49.30;23.70
66928;DHT22;59882;45.624;11.698;2023-07-29T14:10:06;49.40;23.30
66928;DHT22;59882;45.624;11.698;2023-07-29T14:12:32;49.50;23.20
66928;DHT22;59882;45.624;11.698;2023-07-29T14:14:57;49.30;23.30
66928;DHT22;59882;45.624;11.698;2023-07-29T14:17:23;49.40;23.70
66928;DHT22;59882;45.624;11.698;2023-07-29T14:19:48;49.60;23.10
66928;DHT22;59882;45.624;11.698;2023-07-29T14:22:14;49.50;23.10
66928;DHT22;59882;45.624;11.698;2023-07-29T14:24:40;48.40;23.10
66928;DHT22;59882;45.624;11.698;2023-07-29T14:27:05;47.70;24.90
66928;DHT22;59882;45.624;11.698;2023-07-29T14:29:31;47.70;24.90
66928;DHT22;59882;45.624;11.698;2023-07-29T14:31:57;48.00;25.50
66928;DHT22;59882;45.624;11.698;2023-07-29T14:34:23;48.40;25.00
66928;DHT22;59882;45.624;11.698;2023-07-29T14:36:48;48.70;24.90
66928;DHT22;59882;45.624;11.698;2023-07-29T14:39:14;48.90;24.90
66928;DHT22;59882;45.624;11.698;2023-07-29T14:41:39;48.90;24.10
66928;DHT22;59882;45.624;11.698;2023-07-29T14:44:05;48.60;23.70
66928;DHT22;59882;45.624;11.698;2023-07-29T14:46:30;48.40;23.20
66928;DHT22;59882;45.624;11.698;2023-07-29T14:48:56;48.00;24.20
66928;DHT22;59882;45.624;11.698;2023-07-29T14:51:22;47.70;24.20
66928;DHT22;59882;45.624;11.698;2023-07-29T14:53:48;47.20;24.40
66928;DHT22;59882;45.624;11.698;2023-07-29T14:56:14;46.20;25.40
66928;DHT22;59882;45.624;11.698;2023-07-29T14:58:43;46.00;26.20
66928;DHT22;59882;45.624;11.698;2023-07-29T15:01:09;46.10;25.30
66928;DHT22;59882;45.624;11.698;2023-07-29T15:03:34;46.20;25.60
66928;DHT22;59882;45.624;11.698;2023-07-29T15:06:00;46.30;26.00
66928;DHT22;59882;45.624;11.698;2023-07-29T15:08:26;46.40;25.40
66928;DHT22;59882;45.624;11.698;2023-07-29T15:10:51;45.90;25.50
66928;DHT22;59882;45.624;11.698;2023-07-29T15:13:17;45.40;25.90
66928;DHT22;59882;45.624;11.698;2023-07-29T15:15:43;45.00;25.90
66928;DHT22;59882;45.624;11.698;2023-07-29T15:18:10;44.70;26.40
66928;DHT22;59882;45.624;11.698;2023-07-29T15:20:35;44.50;26.50
66928;DHT22;59882;45.624;11.698;2023-07-29T15:23:01;44.00;27.30
66928;DHT22;59882;45.624;11.698;2023-07-29T15:25:27;43.30;27.30
66928;DHT22;59882;45.624;11.698;2023-07-29T15:27:53;42.40;28.40